sensor_id;sensor_type;location;lat;lon;timestamp;temperature;humidity
45066;DHT22;30830;53.704;10.004;2024-02-23T00:01:44;9.30;99.90
45066;DHT22;30830;53.704;10.004;2024-02-23T00:04:10;9.30;99.90
45066;DHT22;30830;53.704;10.004;2024-02-23T00:06:35;9.20;99.90
45066;DHT22;30830;53.704;10.004;2024-02-23T00:09:01;9.10;99.90
45066;DHT22;30830;53.704;10.004;2024-02-23T00:11:27;9.00;99.90
45066;DHT22;30830;53.704;10.004;2024-02-23T00:13:53;8.90;99.90
45066;DHT22;30830;53.704;10.004;2024-02-23T00:16:19;8.80;99.90
45066;DHT22;30830;53.704;10.004;2024-02-23T00:18:45;8.70;99.90
45066;DHT22;30830;53.704;10.004;2024-02-23T00:21:10;8.70;99.90
45066;DHT22;30830;53.704;10.004;2024-02-23T00:23:36;8.60;99.90
45066;DHT22;30830;53.704;10.004;2024-02-23T00:26:01;8.60;99.90
45066;DHT22;30830;53.704;10.004;2024-02-23T00:28:27;8.60;99.90
45066;DHT22;30830;53.704;10.004;2024-02-23T00:30:53;8.50;99.90
45066;DHT22;30830;53.704;10.004;2024-02-23T00:33:18;8.50;99.90
45066;DHT22;30830;53.704;10.004;2024-02-23T00:35:44;8.50;99.90
45066;DHT22;30830;53.704;10.004;2024-02-23T00:38:09;8.60;99.90
45066;DHT22;30830;53.704;10.004;2024-02-23T00:40:35;8.50;99.90
45066;DHT22;30830;53.704;10.004;2024-02-23T00:43:01;8.50;99.90
45066;DHT22;30830;53.704;10.004;2024-02-23T00:45:28;8.50;99.90
45066;DHT22;30830;53.704;10.004;2024-02-23T00:47:53;8.40;99.90
45066;DHT22;30830;53.704;10.004;2024-02-23T00:50:19;8.40;99.90
45066;DHT22;30830;53.704;10.004;2024-02-23T00:52:45;8.20;99.90
45066;DHT22;30830;53.704;10.004;2024-02-23T00:55:10;7.90;99.90
45066;DHT22;30830;53.704;10.004;2024-02-23T00:57:39;7.70;99.90
45066;DHT22;30830;53.704;10.004;2024-02-23T01:00:05;7.50;99.90
45066;DHT22;30830;53.704;10.004;2024-02-23T01:02:32;7.30;99.90
45066;DHT22;30830;53.704;10.004;2024-02-23T01:05:00;7.30;99.90
45066;DHT22;30830;53.704;10.004;2024-02-23T01:07:26;7.20;99.90
45066;DHT22;30830;53.704;10.004;2024-02-23T01:09:51;7.10;99.90
45066;DHT22;30830;53.704;10.004;2024-02-23T01:12:17;7.10;99.90
45066;DHT22;30830;53.704;10.004;2024-02-23T01:14:43;7.00;99.90
45066;DHT22;30830;53.704;10.004;2024-02-23T01:17:08;7.00;99.90
45066;DHT22;30830;53.704;10.004;2024-02-23T01:19:34;7.00;99.90
45066;DHT22;30830;53.704;10.004;2024-02-23T01:21:59;6.90;99.90
45066;DHT22;30830;53.704;10.004;2024-02-23T01:24:26;6.90;99.90
45066;DHT22;30830;53.704;10.004;2024-02-23T01:26:53;6.80;99.90
45066;DHT22;30830;53.704;10.004;2024-02-23T01:29:20;6.90;99.90
45066;DHT22;30830;53.704;10.004;2024-02-23T01:31:46;6.80;99.90
45066;DHT22;30830;53.704;10.004;2024-02-23T01:34:11;6.80;99.90
45066;DHT22;30830;53.704;10.004;2024-02-23T01:36:37;6.80;99.90
45066;DHT22;30830;53.704;10.004;2024-02-23T01:39:04;6.80;99.90
45066;DHT22;30830;53.704;10.004;2024-02-23T01:41:30;6.70;99.90
45066;DHT22;30830;53.704;10.004;2024-02-23T01:43:55;6.70;99.90
45066;DHT22;30830;53.704;10.004;2024-02-23T01:46:21;6.70;99.90
45066;DHT22;30830;53.704;10.004;2024-02-23T01:48:47;6.70;99.90
45066;DHT22;30830;53.704;10.004;2024-02-23T01:51:12;6.70;99.90
45066;DHT22;30830;53.704;10.004;2024-02-23T01:53:38;6.70;99.90
45066;DHT22;30830;53.704;10.004;2024-02-23T01:56:04;6.70;99.90
45066;DHT22;30830;53.704;10.004;2024-02-23T01:58:33;6.70;99.90
45066;DHT22;30830;53.704;10.004;2024-02-23T02:00:59;6.70;99.90
45066;DHT22;30830;53.704;10.004;2024-02-23T02:03:25;6.70;99.90
45066;DHT22;30830;53.704;10.004;2024-02-23T02:05:51;6.70;99.90
45066;DHT22;30830;53.704;10.004;2024-02-23T02:08:18;6.60;99.90
45066;DHT22;30830;53.704;10.004;2024-02-23T02:10:43;6.60;99.90
45066;DHT22;30830;53.704;10.004;2024-02-23T02:13:10;6.60;99.90
45066;DHT22;30830;53.704;10.004;2024-02-23T02:15:36;6.60;99.90
45066;DHT22;30830;53.704;10.004;2024-02-23T02:18:02;6.50;99.90
45066;DHT22;30830;53.704;10.004;2024-02-23T02:20:28;6.50;99.90
45066;DHT22;30830;53.704;10.004;2024-02-23T02:22:57;6.40;99.90
45066;DHT22;30830;53.704;10.004;2024-02-23T02:25:22;6.40;99.90
45066;DHT22;30830;53.704;10.004;2024-02-23T02:27:48;6.40;99.90
45066;DHT22;30830;53.704;10.004;2024-02-23T02:30:14;6.40;99.90
45066;DHT22;30830;53.704;10.004;2024-02-23T02:32:39;6.30;99.90
45066;DHT22;30830;53.704;10.004;2024-02-23T02:35:05;6.30;99.90
45066;DHT22;30830;53.704;10.004;2024-02-23T02:37:31;6.30;99.90
45066;DHT22;30830;53.704;10.004;2024-02-23T02:39:56;6.20;99.90
45066;DHT22;30830;53.704;10.004;2024-02-23T02:42:22;6.20;99.90
45066;DHT22;30830;53.704;10.004;2024-02-23T02:44:47;6.10;99.90
45066;DHT22;30830;53.704;10.004;2024-02-23T02:47:13;6.10;99.90
45066;DHT22;30830;53.704;10.004;2024-02-23T02:49:39;6.00;99.90
45066;DHT22;30830;53.704;10.004;2024-02-23T02:52:05;6.00;99.90
45066;DHT22;30830;53.704;10.004;2024-02-23T02:54:31;5.90;99.90
45066;DHT22;30830;53.704;10.004;2024-02-23T02:56:57;5.90;99.90
45066;DHT22;30830;53.704;10.004;2024-02-23T02:59:23;5.80;99.90
45066;DHT22;30830;53.704;10.004;2024-02-23T03:01:48;5.80;99.90
45066;DHT22;30830;53.704;10.004;2024-02-23T03:04:14;5.80;99.90
45066;DHT22;30830;53.704;10.004;2024-02-23T03:06:40;5.80;99.90
45066;DHT22;30830;53.704;10.004;2024-02-23T03:09:05;5.70;99.90
45066;DHT22;30830;53.704;10.004;2024-02-23T03:11:32;5.70;99.90
45066;DHT22;30830;53.704;10.004;2024-02-23T03:13:57;5.60;99.90
45066;DHT22;30830;53.704;10.004;2024-02-23T03:16:23;5.60;99.90
45066;DHT22;30830;53.704;10.004;2024-02-23T03:18:51;5.60;99.90
45066;DHT22;30830;53.704;10.004;2024-02-23T03:21:17;5.60;99.90
45066;DHT22;30830;53.704;10.004;2024-02-23T03:23:42;5.60;99.90
45066;DHT22;30830;53.704;10.004;2024-02-23T03:26:08;5.60;99.90
45066;DHT22;30830;53.704;10.004;2024-02-23T03:28:34;5.50;99.90
45066;DHT22;30830;53.704;10.004;2024-02-23T03:31:02;5.50;99.90
45066;DHT22;30830;53.704;10.004;2024-02-23T03:33:28;5.50;99.90
45066;DHT22;30830;53.704;10.004;2024-02-23T03:35:54;5.50;99.90
45066;DHT22;30830;53.704;10.004;2024-02-23T03:38:20;5.50;99.90
45066;DHT22;30830;53.704;10.004;2024-02-23T03:40:46;5.50;99.90
45066;DHT22;30830;53.704;10.004;2024-02-23T03:43:11;5.50;99.90
45066;DHT22;30830;53.704;10.004;2024-02-23T03:45:37;5.50;99.90
45066;DHT22;30830;53.704;10.004;2024-02-23T03:48:04;5.60;99.90
45066;DHT22;30830;53.704;10.004;2024-02-23T03:50:30;5.50;99.90
45066;DHT22;30830;53.704;10.004;2024-02-23T03:52:55;5.50;99.90
45066;DHT22;30830;53.704;10.004;2024-02-23T03:55:21;5.40;99.90
45066;DHT22;30830;53.704;10.004;2024-02-23T03:57:47;5.40;99.90
45066;DHT22;30830;53.704;10.004;2024-02-23T04:00:13;5.30;99.90
45066;DHT22;30830;53.704;10.004;2024-02-23T04:02:39;5.30;99.90
45066;DHT22;30830;53.704;10.004;2024-02-23T04:05:05;5.30;99.90
45066;DHT22;30830;53.704;10.004;2024-02-23T04:07:31;5.20;99.90
45066;DHT22;30830;53.704;10.004;2024-02-23T04:09:57;5.20;99.90
45066;DHT22;30830;53.704;10.004;2024-02-23T04:12:23;5.20;99.90
45066;DHT22;30830;53.704;10.004;2024-02-23T04:14:48;5.10;99.90
45066;DHT22;30830;53.704;10.004;2024-02-23T04:17:15;5.10;99.90
45066;DHT22;30830;53.704;10.004;2024-02-23T04:19:41;5.00;99.90
45066;DHT22;30830;53.704;10.004;2024-02-23T04:22:08;5.00;99.90
45066;DHT22;30830;53.704;10.004;2024-02-23T04:24:36;5.00;99.90
45066;DHT22;30830;53.704;10.004;2024-02-23T04:27:02;4.90;99.90
45066;DHT22;30830;53.704;10.004;2024-02-23T04:29:27;4.90;99.90
45066;DHT22;30830;53.704;10.004;2024-02-23T04:31:53;4.90;99.90
45066;DHT22;30830;53.704;10.004;2024-02-23T04:34:18;4.90;99.90
45066;DHT22;30830;53.704;10.004;2024-02-23T04:36:44;4.90;99.90
45066;DHT22;30830;53.704;10.004;2024-02-23T04:39:09;4.90;99.90
45066;DHT22;30830;53.704;10.004;2024-02-23T04:41:35;5.00;99.90
45066;DHT22;30830;53.704;10.004;2024-02-23T04:44:00;5.00;99.90
45066;DHT22;30830;53.704;10.004;2024-02-23T04:46:27;5.00;99.90
45066;DHT22;30830;53.704;10.004;2024-02-23T04:48:53;4.90;99.90
45066;DHT22;30830;53.704;10.004;2024-02-23T04:51:18;4.90;99.90
45066;DHT22;30830;53.704;10.004;2024-02-23T04:53:44;4.90;99.90
45066;DHT22;30830;53.704;10.004;2024-02-23T04:56:10;5.00;99.90
45066;DHT22;30830;53.704;10.004;2024-02-23T04:58:35;4.90;99.90
45066;DHT22;30830;53.704;10.004;2024-02-23T05:01:03;4.90;99.90
45066;DHT22;30830;53.704;10.004;2024-02-23T05:03:28;4.90;99.90
45066;DHT22;30830;53.704;10.004;2024-02-23T05:05:54;4.90;99.90
45066;DHT22;30830;53.704;10.004;2024-02-23T05:08:20;4.90;99.90
45066;DHT22;30830;53.704;10.004;2024-02-23T05:10:46;4.90;99.90
45066;DHT22;30830;53.704;10.004;2024-02-23T05:13:13;5.00;99.90
45066;DHT22;30830;53.704;10.004;2024-02-23T05:15:38;5.00;99.90
45066;DHT22;30830;53.704;10.004;2024-02-23T05:18:04;5.00;99.90
45066;DHT22;30830;53.704;10.004;2024-02-23T05:20:30;5.00;99.90
45066;DHT22;30830;53.704;10.004;2024-02-23T05:22:55;5.10;99.90
45066;DHT22;30830;53.704;10.004;2024-02-23T05:25:21;5.10;99.90
45066;DHT22;30830;53.704;10.004;2024-02-23T05:27:46;5.10;99.90
45066;DHT22;30830;53.704;10.004;2024-02-23T05:30:12;5.10;99.90
45066;DHT22;30830;53.704;10.004;2024-02-23T05:32:38;5.10;99.90
45066;DHT22;30830;53.704;10.004;2024-02-23T05:35:04;5.00;99.90
45066;DHT22;30830;53.704;10.004;2024-02-23T05:37:30;5.00;99.90
45066;DHT22;30830;53.704;10.004;2024-02-23T05:39:55;5.00;99.90
45066;DHT22;30830;53.704;10.004;2024-02-23T05:42:21;5.00;99.90
45066;DHT22;30830;53.704;10.004;2024-02-23T05:44:47;4.90;99.90
45066;DHT22;30830;53.704;10.004;2024-02-23T05:47:14;4.90;99.90
45066;DHT22;30830;53.704;10.004;2024-02-23T05:49:39;4.90;99.90
45066;DHT22;30830;53.704;10.004;2024-02-23T05:52:05;4.80;99.90
45066;DHT22;30830;53.704;10.004;2024-02-23T05:54:31;4.80;99.90
45066;DHT22;30830;53.704;10.004;2024-02-23T05:56:56;4.80;99.90
45066;DHT22;30830;53.704;10.004;2024-02-23T05:59:22;4.70;99.90
45066;DHT22;30830;53.704;10.004;2024-02-23T06:01:47;4.80;99.90
45066;DHT22;30830;53.704;10.004;2024-02-23T06:04:13;4.80;99.90
45066;DHT22;30830;53.704;10.004;2024-02-23T06:06:41;4.80;99.90
45066;DHT22;30830;53.704;10.004;2024-02-23T06:09:08;4.80;99.90
45066;DHT22;30830;53.704;10.004;2024-02-23T06:11:35;4.70;99.90
45066;DHT22;30830;53.704;10.004;2024-02-23T06:14:00;4.80;99.90
45066;DHT22;30830;53.704;10.004;2024-02-23T06:16:26;4.70;99.90
45066;DHT22;30830;53.704;10.004;2024-02-23T06:18:51;4.80;99.90
45066;DHT22;30830;53.704;10.004;2024-02-23T06:21:17;4.80;99.90
45066;DHT22;30830;53.704;10.004;2024-02-23T06:23:43;4.70;99.90
45066;DHT22;30830;53.704;10.004;2024-02-23T06:26:10;4.70;99.90
45066;DHT22;30830;53.704;10.004;2024-02-23T06:28:36;4.70;99.90
45066;DHT22;30830;53.704;10.004;2024-02-23T06:31:03;4.80;99.90
45066;DHT22;30830;53.704;10.004;2024-02-23T06:33:30;4.70;99.90
45066;DHT22;30830;53.704;10.004;2024-02-23T06:35:56;4.80;99.90
45066;DHT22;30830;53.704;10.004;2024-02-23T06:38:21;4.80;99.90
45066;DHT22;30830;53.704;10.004;2024-02-23T06:40:47;4.80;99.90
45066;DHT22;30830;53.704;10.004;2024-02-23T06:43:13;4.80;99.90
45066;DHT22;30830;53.704;10.004;2024-02-23T06:45:38;4.80;99.90
45066;DHT22;30830;53.704;10.004;2024-02-23T06:48:05;4.80;99.90
45066;DHT22;30830;53.704;10.004;2024-02-23T06:50:31;4.80;99.90
45066;DHT22;30830;53.704;10.004;2024-02-23T06:52:56;4.80;99.90
45066;DHT22;30830;53.704;10.004;2024-02-23T06:55:22;4.80;99.90
45066;DHT22;30830;53.704;10.004;2024-02-23T06:57:48;4.80;99.90
45066;DHT22;30830;53.704;10.004;2024-02-23T07:00:14;4.90;99.90
45066;DHT22;30830;53.704;10.004;2024-02-23T07:02:40;4.90;99.90
45066;DHT22;30830;53.704;10.004;2024-02-23T07:05:06;4.90;99.90
45066;DHT22;30830;53.704;10.004;2024-02-23T07:07:38;4.90;99.90
45066;DHT22;30830;53.704;10.004;2024-02-23T07:10:06;4.90;99.90
45066;DHT22;30830;53.704;10.004;2024-02-23T07:12:31;4.90;99.90
45066;DHT22;30830;53.704;10.004;2024-02-23T07:14:57;4.90;99.90
45066;DHT22;30830;53.704;10.004;2024-02-23T07:17:23;4.90;99.90
45066;DHT22;30830;53.704;10.004;2024-02-23T07:19:48;5.00;99.90
45066;DHT22;30830;53.704;10.004;2024-02-23T07:22:16;5.00;99.90
45066;DHT22;30830;53.704;10.004;2024-02-23T07:24:43;5.00;99.90
45066;DHT22;30830;53.704;10.004;2024-02-23T07:27:09;5.00;99.90
45066;DHT22;30830;53.704;10.004;2024-02-23T07:29:35;5.00;99.90
45066;DHT22;30830;53.704;10.004;2024-02-23T07:32:00;5.00;99.90
45066;DHT22;30830;53.704;10.004;2024-02-23T07:34:26;5.00;99.90
45066;DHT22;30830;53.704;10.004;2024-02-23T07:36:52;5.00;99.90
45066;DHT22;30830;53.704;10.004;2024-02-23T07:39:18;5.00;99.90
45066;DHT22;30830;53.704;10.004;2024-02-23T07:41:44;5.00;99.90
45066;DHT22;30830;53.704;10.004;2024-02-23T07:44:10;5.00;99.90
45066;DHT22;30830;53.704;10.004;2024-02-23T07:46:35;5.00;99.90
45066;DHT22;30830;53.704;10.004;2024-02-23T07:49:02;5.00;99.90
45066;DHT22;30830;53.704;10.004;2024-02-23T07:51:28;5.10;99.90
45066;DHT22;30830;53.704;10.004;2024-02-23T07:53:54;5.10;99.90
45066;DHT22;30830;53.704;10.004;2024-02-23T07:56:20;5.10;99.90
45066;DHT22;30830;53.704;10.004;2024-02-23T07:58:46;5.10;99.90
45066;DHT22;30830;53.704;10.004;2024-02-23T08:01:12;5.10;99.90
45066;DHT22;30830;53.704;10.004;2024-02-23T08:03:39;5.10;99.90
45066;DHT22;30830;53.704;10.004;2024-02-23T08:06:04;5.10;99.90
45066;DHT22;30830;53.704;10.004;2024-02-23T08:08:30;5.20;99.90
45066;DHT22;30830;53.704;10.004;2024-02-23T08:11:00;5.20;99.90
45066;DHT22;30830;53.704;10.004;2024-02-23T08:13:26;5.20;99.90
45066;DHT22;30830;53.704;10.004;2024-02-23T08:15:51;5.20;99.90
45066;DHT22;30830;53.704;10.004;2024-02-23T08:18:17;5.30;99.90
45066;DHT22;30830;53.704;10.004;2024-02-23T08:20:42;5.30;99.90
45066;DHT22;30830;53.704;10.004;2024-02-23T08:23:08;5.30;99.90
45066;DHT22;30830;53.704;10.004;2024-02-23T08:25:35;5.30;99.90
45066;DHT22;30830;53.704;10.004;2024-02-23T08:28:01;5.40;99.90
45066;DHT22;30830;53.704;10.004;2024-02-23T08:30:27;5.50;99.90
45066;DHT22;30830;53.704;10.004;2024-02-23T08:32:53;5.50;99.90
45066;DHT22;30830;53.704;10.004;2024-02-23T08:35:18;5.50;99.90
45066;DHT22;30830;53.704;10.004;2024-02-23T08:37:44;5.60;99.90
45066;DHT22;30830;53.704;10.004;2024-02-23T08:40:11;5.80;99.90
45066;DHT22;30830;53.704;10.004;2024-02-23T08:42:37;5.80;99.90
45066;DHT22;30830;53.704;10.004;2024-02-23T08:45:03;6.00;99.90
45066;DHT22;30830;53.704;10.004;2024-02-23T08:47:29;6.00;99.90
45066;DHT22;30830;53.704;10.004;2024-02-23T08:49:58;6.10;99.90
45066;DHT22;30830;53.704;10.004;2024-02-23T08:52:23;6.10;99.90
45066;DHT22;30830;53.704;10.004;2024-02-23T08:54:49;6.00;99.90
45066;DHT22;30830;53.704;10.004;2024-02-23T08:57:14;6.10;99.90
45066;DHT22;30830;53.704;10.004;2024-02-23T08:59:44;6.00;99.90
45066;DHT22;30830;53.704;10.004;2024-02-23T09:02:10;6.00;99.90
45066;DHT22;30830;53.704;10.004;2024-02-23T09:04:36;6.00;99.90
45066;DHT22;30830;53.704;10.004;2024-02-23T09:07:02;6.10;99.90
45066;DHT22;30830;53.704;10.004;2024-02-23T09:09:27;6.10;99.90
45066;DHT22;30830;53.704;10.004;2024-02-23T09:11:53;6.10;99.90
45066;DHT22;30830;53.704;10.004;2024-02-23T09:14:19;6.10;99.90
45066;DHT22;30830;53.704;10.004;2024-02-23T09:16:44;6.20;99.90
45066;DHT22;30830;53.704;10.004;2024-02-23T09:19:11;6.20;99.90
45066;DHT22;30830;53.704;10.004;2024-02-23T09:21:37;6.20;99.90
45066;DHT22;30830;53.704;10.004;2024-02-23T09:24:03;6.30;99.90
45066;DHT22;30830;53.704;10.004;2024-02-23T09:26:29;6.30;99.90
45066;DHT22;30830;53.704;10.004;2024-02-23T09:28:55;6.40;99.90
45066;DHT22;30830;53.704;10.004;2024-02-23T09:31:20;6.40;99.90
45066;DHT22;30830;53.704;10.004;2024-02-23T09:33:46;6.50;99.90
45066;DHT22;30830;53.704;10.004;2024-02-23T09:36:12;6.50;99.90
45066;DHT22;30830;53.704;10.004;2024-02-23T09:38:38;6.60;99.90
45066;DHT22;30830;53.704;10.004;2024-02-23T09:41:04;6.70;99.90
45066;DHT22;30830;53.704;10.004;2024-02-23T09:43:30;6.80;99.90
45066;DHT22;30830;53.704;10.004;2024-02-23T09:45:57;6.80;99.90
45066;DHT22;30830;53.704;10.004;2024-02-23T09:48:23;6.90;99.90
45066;DHT22;30830;53.704;10.004;2024-02-23T09:50:50;6.90;99.90
45066;DHT22;30830;53.704;10.004;2024-02-23T09:53:17;7.00;99.90
45066;DHT22;30830;53.704;10.004;2024-02-23T09:55:45;7.00;99.90
45066;DHT22;30830;53.704;10.004;2024-02-23T09:58:13;7.00;99.90
45066;DHT22;30830;53.704;10.004;2024-02-23T10:00:39;7.00;99.90
45066;DHT22;30830;53.704;10.004;2024-02-23T10:03:05;7.00;99.90
45066;DHT22;30830;53.704;10.004;2024-02-23T10:05:31;7.00;99.90
45066;DHT22;30830;53.704;10.004;2024-02-23T10:07:57;7.00;99.90
45066;DHT22;30830;53.704;10.004;2024-02-23T10:10:33;7.10;99.90
45066;DHT22;30830;53.704;10.004;2024-02-23T10:13:00;7.20;99.90
45066;DHT22;30830;53.704;10.004;2024-02-23T10:15:28;7.20;99.90
45066;DHT22;30830;53.704;10.004;2024-02-23T10:17:54;7.30;99.90
45066;DHT22;30830;53.704;10.004;2024-02-23T10:20:20;7.30;99.90
45066;DHT22;30830;53.704;10.004;2024-02-23T10:22:45;7.30;99.90
45066;DHT22;30830;53.704;10.004;2024-02-23T10:25:12;7.30;99.90
45066;DHT22;30830;53.704;10.004;2024-02-23T10:27:37;7.30;99.90
45066;DHT22;30830;53.704;10.004;2024-02-23T10:30:03;7.40;99.90
45066;DHT22;30830;53.704;10.004;2024-02-23T10:32:29;7.50;99.90
45066;DHT22;30830;53.704;10.004;2024-02-23T10:35:00;7.60;99.90
45066;DHT22;30830;53.704;10.004;2024-02-23T10:37:26;7.70;99.90
45066;DHT22;30830;53.704;10.004;2024-02-23T10:39:57;7.80;99.90
45066;DHT22;30830;53.704;10.004;2024-02-23T10:42:24;7.80;99.90
45066;DHT22;30830;53.704;10.004;2024-02-23T10:44:51;7.80;99.90
45066;DHT22;30830;53.704;10.004;2024-02-23T10:47:18;7.80;99.90
45066;DHT22;30830;53.704;10.004;2024-02-23T10:49:45;7.80;99.90
45066;DHT22;30830;53.704;10.004;2024-02-23T10:52:12;7.90;99.90
45066;DHT22;30830;53.704;10.004;2024-02-23T10:54:40;7.90;99.90
45066;DHT22;30830;53.704;10.004;2024-02-23T10:57:07;8.00;99.90
45066;DHT22;30830;53.704;10.004;2024-02-23T10:59:33;8.10;99.90
45066;DHT22;30830;53.704;10.004;2024-02-23T11:01:59;8.10;99.90
45066;DHT22;30830;53.704;10.004;2024-02-23T11:04:26;8.00;99.90
45066;DHT22;30830;53.704;10.004;2024-02-23T11:06:54;7.90;99.90
45066;DHT22;30830;53.704;10.004;2024-02-23T11:09:25;7.90;99.90
45066;DHT22;30830;53.704;10.004;2024-02-23T11:11:58;7.80;99.90
45066;DHT22;30830;53.704;10.004;2024-02-23T11:14:31;7.80;99.90
45066;DHT22;30830;53.704;10.004;2024-02-23T11:16:58;7.80;99.90
45066;DHT22;30830;53.704;10.004;2024-02-23T11:19:32;7.80;99.90
45066;DHT22;30830;53.704;10.004;2024-02-23T11:21:59;7.80;99.90
45066;DHT22;30830;53.704;10.004;2024-02-23T11:24:27;7.80;99.90
45066;DHT22;30830;53.704;10.004;2024-02-23T11:26:57;7.90;99.90
45066;DHT22;30830;53.704;10.004;2024-02-23T11:29:29;8.00;99.90
45066;DHT22;30830;53.704;10.004;2024-02-23T11:31:55;8.00;99.90
45066;DHT22;30830;53.704;10.004;2024-02-23T11:34:26;8.00;99.90
45066;DHT22;30830;53.704;10.004;2024-02-23T11:36:52;8.10;99.90
45066;DHT22;30830;53.704;10.004;2024-02-23T11:39:19;8.10;99.90
45066;DHT22;30830;53.704;10.004;2024-02-23T11:41:48;8.10;99.90
45066;DHT22;30830;53.704;10.004;2024-02-23T11:44:17;8.10;99.90
45066;DHT22;30830;53.704;10.004;2024-02-23T11:46:43;8.00;99.90
45066;DHT22;30830;53.704;10.004;2024-02-23T11:49:08;8.00;99.90
45066;DHT22;30830;53.704;10.004;2024-02-23T11:51:34;8.00;99.90
45066;DHT22;30830;53.704;10.004;2024-02-23T11:54:00;8.00;99.90
45066;DHT22;30830;53.704;10.004;2024-02-23T11:56:26;8.00;99.90
45066;DHT22;30830;53.704;10.004;2024-02-23T11:58:54;8.10;99.90
45066;DHT22;30830;53.704;10.004;2024-02-23T12:01:20;8.20;99.90
45066;DHT22;30830;53.704;10.004;2024-02-23T12:03:46;8.20;99.90
45066;DHT22;30830;53.704;10.004;2024-02-23T12:06:14;8.30;99.90
45066;DHT22;30830;53.704;10.004;2024-02-23T12:08:40;8.30;99.90
45066;DHT22;30830;53.704;10.004;2024-02-23T12:11:08;8.40;99.90
45066;DHT22;30830;53.704;10.004;2024-02-23T12:13:37;8.40;99.90
45066;DHT22;30830;53.704;10.004;2024-02-23T12:16:03;8.40;99.90
45066;DHT22;30830;53.704;10.004;2024-02-23T12:18:29;8.40;99.90
45066;DHT22;30830;53.704;10.004;2024-02-23T12:21:01;8.40;99.90
45066;DHT22;30830;53.704;10.004;2024-02-23T12:23:37;8.40;99.90
45066;DHT22;30830;53.704;10.004;2024-02-23T12:26:03;8.40;99.90
45066;DHT22;30830;53.704;10.004;2024-02-23T12:28:29;8.40;99.90
45066;DHT22;30830;53.704;10.004;2024-02-23T12:31:02;8.50;99.90
45066;DHT22;30830;53.704;10.004;2024-02-23T12:33:32;8.50;99.90
45066;DHT22;30830;53.704;10.004;2024-02-23T12:35:58;8.50;99.90
45066;DHT22;30830;53.704;10.004;2024-02-23T12:38:24;8.40;99.90
45066;DHT22;30830;53.704;10.004;2024-02-23T12:40:50;8.40;99.90
45066;DHT22;30830;53.704;10.004;2024-02-23T12:43:16;8.30;99.90
45066;DHT22;30830;53.704;10.004;2024-02-23T12:45:42;8.20;99.90
45066;DHT22;30830;53.704;10.004;2024-02-23T12:48:10;8.20;99.90
45066;DHT22;30830;53.704;10.004;2024-02-23T12:50:35;8.10;99.90
45066;DHT22;30830;53.704;10.004;2024-02-23T12:53:02;8.10;99.90
45066;DHT22;30830;53.704;10.004;2024-02-23T12:55:28;8.10;99.90
45066;DHT22;30830;53.704;10.004;2024-02-23T12:57:53;8.20;99.90
45066;DHT22;30830;53.704;10.004;2024-02-23T13:00:19;8.20;99.90
45066;DHT22;30830;53.704;10.004;2024-02-23T13:02:44;8.20;99.90
45066;DHT22;30830;53.704;10.004;2024-02-23T13:05:10;8.20;99.90
45066;DHT22;30830;53.704;10.004;2024-02-23T13:07:35;8.20;99.90
45066;DHT22;30830;53.704;10.004;2024-02-23T13:10:04;8.20;99.90
45066;DHT22;30830;53.704;10.004;2024-02-23T13:12:30;8.20;99.90
45066;DHT22;30830;53.704;10.004;2024-02-23T13:14:55;8.30;99.90
45066;DHT22;30830;53.704;10.004;2024-02-23T13:17:21;8.30;99.90
45066;DHT22;30830;53.704;10.004;2024-02-23T13:19:46;8.20;99.90
45066;DHT22;30830;53.704;10.004;2024-02-23T13:22:12;8.20;99.90
45066;DHT22;30830;53.704;10.004;2024-02-23T13:24:37;8.20;99.90
45066;DHT22;30830;53.704;10.004;2024-02-23T13:27:05;8.10;99.90
45066;DHT22;30830;53.704;10.004;2024-02-23T13:29:31;8.10;99.90
45066;DHT22;30830;53.704;10.004;2024-02-23T13:31:56;8.10;99.90
45066;DHT22;30830;53.704;10.004;2024-02-23T13:34:22;8.00;99.90
45066;DHT22;30830;53.704;10.004;2024-02-23T13:36:48;8.00;99.90
45066;DHT22;30830;53.704;10.004;2024-02-23T13:39:15;8.00;99.90
45066;DHT22;30830;53.704;10.004;2024-02-23T13:41:41;8.00;99.90
45066;DHT22;30830;53.704;10.004;2024-02-23T13:44:06;7.90;99.90
45066;DHT22;30830;53.704;10.004;2024-02-23T13:46:36;7.90;99.90
45066;DHT22;30830;53.704;10.004;2024-02-23T13:49:07;7.90;99.90
45066;DHT22;30830;53.704;10.004;2024-02-23T13:51:35;7.90;99.90
45066;DHT22;30830;53.704;10.004;2024-02-23T13:54:00;7.90;99.90
45066;DHT22;30830;53.704;10.004;2024-02-23T13:56:26;7.90;99.90
45066;DHT22;30830;53.704;10.004;2024-02-23T13:58:51;7.80;99.90
45066;DHT22;30830;53.704;10.004;2024-02-23T14:01:17;7.80;99.90
45066;DHT22;30830;53.704;10.004;2024-02-23T14:03:43;7.80;99.90
45066;DHT22;30830;53.704;10.004;2024-02-23T14:06:08;7.80;99.90
45066;DHT22;30830;53.704;10.004;2024-02-23T14:08:34;7.80;99.90
45066;DHT22;30830;53.704;10.004;2024-02-23T14:11:02;7.80;99.90
45066;DHT22;30830;53.704;10.004;2024-02-23T14:13:29;7.80;99.90
45066;DHT22;30830;53.704;10.004;2024-02-23T14:15:54;7.90;99.90
45066;DHT22;30830;53.704;10.004;2024-02-23T14:18:20;7.90;99.90
45066;DHT22;30830;53.704;10.004;2024-02-23T14:20:45;7.90;99.90
45066;DHT22;30830;53.704;10.004;2024-02-23T14:23:11;7.90;99.90
45066;DHT22;30830;53.704;10.004;2024-02-23T14:25:36;8.00;99.90
45066;DHT22;30830;53.704;10.004;2024-02-23T14:28:02;8.10;99.90
45066;DHT22;30830;53.704;10.004;2024-02-23T14:30:28;8.20;99.90
45066;DHT22;30830;53.704;10.004;2024-02-23T14:32:54;8.30;99.90
45066;DHT22;30830;53.704;10.004;2024-02-23T14:35:19;8.30;99.90
45066;DHT22;30830;53.704;10.004;2024-02-23T14:37:46;8.30;99.90
45066;DHT22;30830;53.704;10.004;2024-02-23T14:40:11;8.30;99.90
45066;DHT22;30830;53.704;10.004;2024-02-23T14:42:37;8.30;99.90
45066;DHT22;30830;53.704;10.004;2024-02-23T14:45:05;8.30;99.90
45066;DHT22;30830;53.704;10.004;2024-02-23T14:47:30;8.30;99.90
45066;DHT22;30830;53.704;10.004;2024-02-23T14:49:56;8.30;99.90
45066;DHT22;30830;53.704;10.004;2024-02-23T14:52:22;8.20;99.90
45066;DHT22;30830;53.704;10.004;2024-02-23T14:54:47;8.20;99.90
45066;DHT22;30830;53.704;10.004;2024-02-23T14:57:13;8.10;99.90
45066;DHT22;30830;53.704;10.004;2024-02-23T14:59:38;8.10;99.90
45066;DHT22;30830;53.704;10.004;2024-02-23T15:02:15;8.10;99.90
45066;DHT22;30830;53.704;10.004;2024-02-23T15:04:43;8.20;99.90
45066;DHT22;30830;53.704;10.004;2024-02-23T15:07:09;8.20;99.90
45066;DHT22;30830;53.704;10.004;2024-02-23T15:09:35;8.20;99.90
45066;DHT22;30830;53.704;10.004;2024-02-23T15:12:01;8.20;99.90
45066;DHT22;30830;53.704;10.004;2024-02-23T15:14:26;8.20;99.90
45066;DHT22;30830;53.704;10.004;2024-02-23T15:16:52;8.20;99.90
45066;DHT22;30830;53.704;10.004;2024-02-23T15:19:17;8.20;99.90
45066;DHT22;30830;53.704;10.004;2024-02-23T15:21:43;8.10;99.90
45066;DHT22;30830;53.704;10.004;2024-02-23T15:24:10;8.10;99.90